Time;durP1;ratioP1;P1;durP2;ratioP2;P2;SDS_P1;SDS_P2;PMS_P1;PMS_P2;Temp;Humidity;BMP_temperature;BMP_pressure;BME280_temperature;BME280_humidity;BME280_pressure;Samples;Min_cycle;Max_cycle;Signal;HPM_P1;HPM_P2
2023/07/27 00:00:38;;;;;;;;;;;;;;;-140.72;49.07;52504.50;5087337;28;19947;-71
2023/07/27 00:03:04;;;;;;;;;;;;;;;-140.72;78.83;52541.03;5088676;28;20365;-70
2023/07/27 00:05:29;;;;;;;;;;;;;;;-140.72;100.00;52553.19;5082430;28;20003;-70
2023/07/27 00:07:56;;;;;;;;;;;;;;;-140.72;100.00;52541.03;5064095;28;19967;-70
2023/07/27 00:10:25;;;;;;;;;;;;;;;-140.72;100.00;52502.47;5096636;28;19971;-71
2023/07/27 00:12:50;;;;;;;;;;;;;;;-140.72;100.00;52522.75;5088143;28;20022;-70
2023/07/27 00:15:16;;;;;;;;;;;;;;;-140.72;100.00;52520.72;5088374;28;20370;-70
2023/07/27 00:17:41;;;;;;;;;;;;;;;-140.72;100.00;52528.84;5078745;28;19990;-70
2023/07/27 00:20:07;;;;;;;;;;;;;;;-140.72;100.00;52561.31;5082100;28;20389;-71
2023/07/27 00:22:32;;;;;;;;;;;;;;;-140.72;100.00;52541.03;5085207;28;19943;-70
2023/07/27 00:24:57;;;;;;;;;;;;;;;-140.72;100.00;52559.28;5090866;28;19967;-69
2023/07/27 00:27:22;;;;;;;;;;;;;;;-140.72;100.00;52528.84;5086891;28;19931;-69
2023/07/27 00:29:48;;;;;;;;;;;;;;;-140.72;100.00;52559.28;5095984;28;19943;-70
2023/07/27 00:32:13;;;;;;;;;;;;;;;-140.72;100.00;52563.34;5086163;28;19928;-70
2023/07/27 00:34:38;;;;;;;;;;;;;;;-140.72;100.00;52547.09;5095582;28;20297;-70
2023/07/27 00:37:03;;;;;;;;;;;;;;;-140.72;100.00;52563.34;5087810;28;19920;-70
2023/07/27 00:39:29;;;;;;;;;;;;;;;-140.72;100.00;52530.88;5081104;28;19974;-70
2023/07/27 00:41:54;;;;;;;;;;;;;;;-140.72;100.00;52526.81;5090470;28;20020;-70
2023/07/27 00:44:19;;;;;;;;;;;;;;;-140.72;100.00;52583.63;5090326;28;19932;-69
2023/07/27 00:46:45;;;;;;;;;;;;;;;-140.72;100.00;52547.09;5089187;28;20030;-69
2023/07/27 00:49:10;;;;;;;;;;;;;;;-140.72;100.00;52567.41;5084175;28;19928;-70
2023/07/27 00:51:38;;;;;;;;;;;;;;;-140.72;100.00;52607.97;5095130;28;19954;-69
2023/07/27 00:54:05;;;;;;;;;;;;;;;-140.72;100.00;52547.09;5095575;28;20015;-70
2023/07/27 00:56:30;;;;;;;;;;;;;;;-140.72;100.00;52559.28;5085140;28;19945;-69
2023/07/27 00:58:59;;;;;;;;;;;;;;;-140.72;100.00;52532.91;5087812;28;19920;-69
2023/07/27 01:01:24;;;;;;;;;;;;;;;-140.72;100.00;52565.38;5081655;28;19928;-69
2023/07/27 01:03:50;;;;;;;;;;;;;;;-140.72;100.00;52567.41;5089586;28;19921;-69
2023/07/27 01:06:16;;;;;;;;;;;;;;;-140.72;100.00;52549.13;5069051;28;19943;-70
2023/07/27 01:08:41;;;;;;;;;;;;;;;-140.72;100.00;52571.47;5093009;28;20389;-68
2023/07/27 01:11:17;;;;;;;;;;;;;;;-140.72;100.00;52593.78;5088382;28;19920;-68
2023/07/27 01:13:49;;;;;;;;;;;;;;;-140.72;100.00;52567.41;5093250;28;19961;-67
2023/07/27 01:16:40;;;;;;;;;;;;;;;-140.72;100.00;52593.78;5099148;28;20981;-68
2023/07/27 01:19:23;;;;;;;;;;;;;;;-140.72;100.00;52597.84;5082558;28;19920;-69
2023/07/27 01:21:54;;;;;;;;;;;;;;;-140.72;100.00;52593.78;5086933;28;19920;-69
2023/07/27 01:24:25;;;;;;;;;;;;;;;-140.72;100.00;52597.84;5081932;28;19921;-69
2023/07/27 01:27:13;;;;;;;;;;;;;;;-140.72;100.00;52557.25;5087109;28;20403;-69
2023/07/27 01:29:57;;;;;;;;;;;;;;;-140.72;100.00;52589.72;5083330;28;19924;-69
2023/07/27 01:32:24;;;;;;;;;;;;;;;-140.72;100.00;52553.19;5079740;28;19924;-70
2023/07/27 01:34:54;;;;;;;;;;;;;;;-140.72;100.00;52585.66;5090116;28;21621;-69
2023/07/27 01:37:21;;;;;;;;;;;;;;;-140.72;100.00;52587.69;5089290;28;19964;-69
2023/07/27 01:39:48;;;;;;;;;;;;;;;-140.72;100.00;52593.78;5092981;28;19927;-69
2023/07/27 01:42:13;;;;;;;;;;;;;;;-140.72;100.00;52585.66;5097070;28;19951;-69
2023/07/27 01:44:39;;;;;;;;;;;;;;;-140.72;100.00;52607.97;5084962;28;19971;-68
2023/07/27 01:47:06;;;;;;;;;;;;;;;-140.72;100.00;52601.91;5083640;28;19926;-68
2023/07/27 01:49:32;;;;;;;;;;;;;;;-140.72;100.00;52607.97;5092227;28;19927;-68
2023/07/27 01:51:58;;;;;;;;;;;;;;;-140.72;100.00;52561.31;5086771;28;20301;-68
2023/07/27 01:54:23;;;;;;;;;;;;;;;-140.72;100.00;52569.44;5092274;28;19950;-68
2023/07/27 01:56:50;;;;;;;;;;;;;;;-140.72;100.00;52585.66;5088844;28;19920;-68
2023/07/27 01:59:15;;;;;;;;;;;;;;;-140.72;100.00;52573.50;5087932;28;19920;-68
2023/07/27 02:01:42;;;;;;;;;;;;;;;-140.72;100.00;52585.66;5075323;28;19924;-67
2023/07/27 02:04:08;;;;;;;;;;;;;;;-140.72;100.00;52565.38;5075853;28;19932;-69
2023/07/27 02:06:33;;;;;;;;;;;;;;;-140.72;100.00;52589.72;5094099;28;20007;-68
2023/07/27 02:08:58;;;;;;;;;;;;;;;-140.72;100.00;52589.72;5086825;28;20480;-68
2023/07/27 02:11:26;;;;;;;;;;;;;;;-140.72;100.00;52571.47;5093674;28;19958;-68
2023/07/27 02:13:54;;;;;;;;;;;;;;;-140.72;100.00;52569.44;5082879;28;19920;-68
2023/07/27 02:16:22;;;;;;;;;;;;;;;-140.72;100.00;52589.72;5084271;28;20301;-68
2023/07/27 02:18:49;;;;;;;;;;;;;;;-140.72;100.00;52603.94;5092048;28;20416;-68
2023/07/27 02:21:14;;;;;;;;;;;;;;;-140.72;100.00;52614.06;5089517;28;20289;-68
2023/07/27 02:23:40;;;;;;;;;;;;;;;-140.72;100.00;52605.94;5092984;28;19924;-68
2023/07/27 02:26:06;;;;;;;;;;;;;;;-140.72;100.00;52581.59;5087110;28;19936;-68
2023/07/27 02:28:32;;;;;;;;;;;;;;;-140.72;100.00;52583.63;5092853;28;19973;-68
2023/07/27 02:30:58;;;;;;;;;;;;;;;-140.72;100.00;52575.50;5065760;28;19960;-68
2023/07/27 02:33:23;;;;;;;;;;;;;;;-140.72;100.00;52571.47;5085770;28;20345;-68
2023/07/27 02:35:49;;;;;;;;;;;;;;;-140.72;100.00;52551.16;5097122;28;19926;-68
2023/07/27 02:38:15;;;;;;;;;;;;;;;-140.72;100.00;52595.81;5090024;28;20007;-67
2023/07/27 02:40:42;;;;;;;;;;;;;;;-140.72;100.00;52585.66;5089890;28;19947;-68
2023/07/27 02:43:07;;;;;;;;;;;;;;;-140.72;100.00;52565.38;5089424;28;19924;-68
2023/07/27 02:45:33;;;;;;;;;;;;;;;-140.72;100.00;52624.22;5098821;28;19926;-68
2023/07/27 02:47:58;;;;;;;;;;;;;;;-140.72;100.00;52603.94;5090097;28;20451;-68
2023/07/27 02:50:25;;;;;;;;;;;;;;;-140.72;100.00;52573.50;5089025;28;19927;-68
2023/07/27 02:52:50;;;;;;;;;;;;;;;-140.72;100.00;52563.34;5083716;28;19916;-68
2023/07/27 02:55:15;;;;;;;;;;;;;;;-140.72;100.00;52573.50;5087435;28;19972;-68
2023/07/27 02:57:40;;;;;;;;;;;;;;;-140.72;100.00;52626.25;5068997;28;20377;-68
2023/07/27 03:00:08;;;;;;;;;;;;;;;-140.72;100.00;52591.75;5089037;28;19920;-68
2023/07/27 03:02:33;;;;;;;;;;;;;;;-140.72;100.00;52595.81;5088917;28;19947;-68
2023/07/27 03:04:58;;;;;;;;;;;;;;;-140.72;100.00;52593.78;5090918;28;19923;-68
2023/07/27 03:07:23;;;;;;;;;;;;;;;-140.72;100.00;52622.19;5091368;28;19920;-68
2023/07/27 03:09:50;;;;;;;;;;;;;;;-140.72;100.00;52614.06;5101751;28;19999;-68
2023/07/27 03:12:15;;;;;;;;;;;;;;;-140.72;100.00;52612.03;5090409;28;19947;-68
2023/07/27 03:14:41;;;;;;;;;;;;;;;-140.72;100.00;52626.25;5088502;28;19920;-68
2023/07/27 03:17:06;;;;;;;;;;;;;;;-140.72;100.00;52601.91;5085835;28;19927;-68
2023/07/27 03:19:31;;;;;;;;;;;;;;;-140.72;100.00;52614.06;5089653;28;20337;-68
2023/07/27 03:21:56;;;;;;;;;;;;;;;-140.72;100.00;52561.31;5074731;28;19928;-68
2023/07/27 03:24:22;;;;;;;;;;;;;;;-140.72;100.00;52597.84;5086362;28;19921;-67
2023/07/27 03:26:47;;;;;;;;;;;;;;;-140.72;100.00;52632.34;5072061;28;19920;-69
2023/07/27 03:29:12;;;;;;;;;;;;;;;-140.72;100.00;52583.63;5086010;28;19920;-69
2023/07/27 03:31:38;;;;;;;;;;;;;;;-140.72;100.00;52601.91;5084879;28;20439;-69
2023/07/27 03:34:03;;;;;;;;;;;;;;;-140.72;100.00;52601.91;5089822;28;20406;-71
2023/07/27 03:36:29;;;;;;;;;;;;;;;-140.72;100.00;52585.66;5083865;28;19952;-69
2023/07/27 03:38:54;;;;;;;;;;;;;;;-140.72;100.00;52622.19;5085084;28;20020;-70
2023/07/27 03:41:19;;;;;;;;;;;;;;;-140.72;100.00;52581.59;5088106;28;20392;-69
2023/07/27 03:43:44;;;;;;;;;;;;;;;-140.72;100.00;52575.50;5091856;28;20014;-69
2023/07/27 03:46:10;;;;;;;;;;;;;;;-140.72;100.00;52577.53;5088705;28;19924;-69
2023/07/27 03:48:35;;;;;;;;;;;;;;;-140.72;100.00;52597.84;5087492;28;20297;-69
2023/07/27 03:51:01;;;;;;;;;;;;;;;-140.72;100.00;52614.06;5085034;28;19924;-70
2023/07/27 03:53:27;;;;;;;;;;;;;;;-140.72;100.00;52593.78;5085551;28;19939;-69
2023/07/27 03:55:52;;;;;;;;;;;;;;;-140.72;100.00;52612.03;5091636;28;19920;-69
2023/07/27 03:58:18;;;;;;;;;;;;;;;-140.72;100.00;52565.38;5092453;28;19946;-69
2023/07/27 04:00:43;;;;;;;;;;;;;;;-140.72;100.00;52593.78;5095152;28;20381;-69
2023/07/27 04:03:08;;;;;;;;;;;;;;;-140.72;100.00;52614.06;5072097;28;19920;-69
2023/07/27 04:05:33;;;;;;;;;;;;;;;-140.72;100.00;52618.13;5079534;28;19920;-69
2023/07/27 04:07:59;;;;;;;;;;;;;;;-140.72;100.00;52614.06;5095898;28;19934;-69
2023/07/27 04:10:29;;;;;;;;;;;;;;;-140.72;100.00;52601.91;5088356;28;19920;-69
2023/07/27 04:12:54;;;;;;;;;;;;;;;-140.72;100.00;52577.53;5094511;28;19964;-70
2023/07/27 04:15:19;;;;;;;;;;;;;;;-140.72;100.00;52616.09;5078264;28;19978;-69
2023/07/27 04:17:45;;;;;;;;;;;;;;;-140.72;100.00;52614.06;5088794;28;20003;-69
2023/07/27 04:20:10;;;;;;;;;;;;;;;-140.72;100.00;52614.06;5091813;28;19928;-69
2023/07/27 04:22:35;;;;;;;;;;;;;;;-140.72;100.00;52605.94;5098372;28;20007;-70
2023/07/27 04:25:01;;;;;;;;;;;;;;;-140.72;100.00;52620.16;5092107;28;19928;-69
2023/07/27 04:27:26;;;;;;;;;;;;;;;-140.72;100.00;52603.94;5094695;28;19927;-69
2023/07/27 04:29:51;;;;;;;;;;;;;;;-140.72;100.00;52605.94;5094589;28;20385;-69
2023/07/27 04:32:17;;;;;;;;;;;;;;;-140.72;100.00;52636.38;5091077;28;19920;-69
2023/07/27 04:34:42;;;;;;;;;;;;;;;-140.72;100.00;52603.94;5089118;28;19926;-69
2023/07/27 04:37:07;;;;;;;;;;;;;;;-140.72;100.00;52607.97;5079831;28;19921;-69
2023/07/27 04:39:32;;;;;;;;;;;;;;;-140.72;100.00;52577.53;5082127;28;19921;-69
2023/07/27 04:41:57;;;;;;;;;;;;;;;-140.72;100.00;52549.13;5097352;28;19920;-68
2023/07/27 04:44:23;;;;;;;;;;;;;;;-140.72;100.00;52601.91;5089332;28;19920;-70
2023/07/27 04:46:48;;;;;;;;;;;;;;;-140.72;100.00;52607.97;5090041;28;19965;-69
2023/07/27 04:49:13;;;;;;;;;;;;;;;-140.72;100.00;52575.50;5090482;28;19927;-70
2023/07/27 04:51:39;;;;;;;;;;;;;;;-140.72;100.00;52593.78;5093305;28;19920;-68
2023/07/27 04:54:04;;;;;;;;;;;;;;;-140.72;100.00;52591.75;5096424;28;19920;-70
2023/07/27 04:56:35;;;;;;;;;;;;;;;-140.72;100.00;52593.78;5094985;28;19920;-70
2023/07/27 04:59:00;;;;;;;;;;;;;;;-140.72;100.00;52597.84;5089840;28;19924;-70
2023/07/27 05:01:26;;;;;;;;;;;;;;;-140.72;100.00;52601.91;5089880;28;20270;-71
2023/07/27 05:03:55;;;;;;;;;;;;;;;-140.72;100.00;52589.72;5094719;28;19989;-72
2023/07/27 05:06:20;;;;;;;;;;;;;;;-140.72;100.00;52575.50;5090895;28;19959;-72
2023/07/27 05:08:46;;;;;;;;;;;;;;;-140.72;100.00;52597.84;5070799;28;19967;-71
2023/07/27 05:11:11;;;;;;;;;;;;;;;-140.72;100.00;52573.50;5095662;28;19931;-71
2023/07/27 05:13:36;;;;;;;;;;;;;;;-140.72;100.00;52618.13;5095887;28;20008;-71
2023/07/27 05:16:02;;;;;;;;;;;;;;;-140.72;100.00;52603.94;5088500;28;19920;-70
2023/07/27 05:18:27;;;;;;;;;;;;;;;-140.72;100.00;52569.44;5075892;28;20304;-70
2023/07/27 05:20:53;;;;;;;;;;;;;;;-140.72;100.00;52583.63;5088964;28;19919;-70
2023/07/27 05:23:18;;;;;;;;;;;;;;;-140.72;100.00;52583.63;5086457;28;20365;-70
2023/07/27 05:25:43;;;;;;;;;;;;;;;-140.72;100.00;52555.22;5089272;28;19920;-70
2023/07/27 05:28:09;;;;;;;;;;;;;;;-140.72;100.00;52571.47;5095335;28;19927;-71
2023/07/27 05:30:34;;;;;;;;;;;;;;;-140.72;100.00;52612.03;5099096;28;19920;-71
2023/07/27 05:32:59;;;;;;;;;;;;;;;-140.72;100.00;52591.75;5088948;28;19960;-71
2023/07/27 05:35:24;;;;;;;;;;;;;;;-140.72;100.00;52563.34;5088877;28;19926;-71
2023/07/27 05:37:50;;;;;;;;;;;;;;;-140.72;100.00;52577.53;5094660;28;20027;-70
2023/07/27 05:40:15;;;;;;;;;;;;;;;-140.72;100.00;52553.19;5098083;28;19974;-71
2023/07/27 05:42:54;;;;;;;;;;;;;;;-140.72;100.00;52561.31;5085403;28;19924;-71
2023/07/27 05:45:19;;;;;;;;;;;;;;;-140.72;100.00;52555.22;5085993;28;19924;-71
2023/07/27 05:47:44;;;;;;;;;;;;;;;-140.72;100.00;52541.03;5088935;28;19934;-71
2023/07/27 05:50:11;;;;;;;;;;;;;;;-140.72;100.00;52563.34;5076331;28;20317;-71
2023/07/27 05:52:36;;;;;;;;;;;;;;;-140.72;100.00;52593.78;5093027;28;19972;-71
2023/07/27 05:55:01;;;;;;;;;;;;;;;-140.72;100.00;52573.50;5079822;28;20382;-70
2023/07/27 05:57:26;;;;;;;;;;;;;;;-140.72;100.00;52591.75;5066742;28;20386;-71
2023/07/27 05:59:52;;;;;;;;;;;;;;;-140.72;100.00;52573.50;5094555;28;19920;-72
2023/07/27 06:02:17;;;;;;;;;;;;;;;-140.72;100.00;52557.25;5072607;28;20062;-72
2023/07/27 06:04:42;;;;;;;;;;;;;;;-140.72;100.00;52555.22;5093825;28;19920;-74
2023/07/27 06:07:07;;;;;;;;;;;;;;;-140.72;100.00;52577.53;5090591;28;19935;-73
2023/07/27 06:09:36;;;;;;;;;;;;;;;-140.72;100.00;52553.19;5084363;28;19920;-72
2023/07/27 06:12:02;;;;;;;;;;;;;;;-140.72;100.00;52569.44;5093255;28;20411;-71
2023/07/27 06:14:28;;;;;;;;;;;;;;;-140.72;100.00;52549.13;5067259;28;19920;-69
2023/07/27 06:16:53;;;;;;;;;;;;;;;-140.72;100.00;52561.31;5095109;28;19970;-69
2023/07/27 06:19:18;;;;;;;;;;;;;;;-140.72;100.00;52585.66;5094475;28;20393;-68
2023/07/27 06:21:47;;;;;;;;;;;;;;;-140.72;100.00;52561.31;5071285;28;20007;-70
2023/07/27 06:24:12;;;;;;;;;;;;;;;-140.72;100.00;52557.25;5086910;28;19919;-76
2023/07/27 06:26:37;;;;;;;;;;;;;;;-140.72;100.00;52593.78;5093389;28;19920;-71
2023/07/27 06:29:02;;;;;;;;;;;;;;;-140.72;100.00;52597.84;5088427;28;19919;-76
2023/07/27 06:31:30;;;;;;;;;;;;;;;-140.72;100.00;52561.31;5081669;28;20378;-72
2023/07/27 06:33:55;;;;;;;;;;;;;;;-140.72;100.00;52545.06;5089099;28;19920;-71
2023/07/27 06:36:20;;;;;;;;;;;;;;;-140.72;100.00;52557.25;5094149;28;19935;-70
2023/07/27 06:38:46;;;;;;;;;;;;;;;-140.72;100.00;52496.38;5094606;28;19923;-70
2023/07/27 06:41:11;;;;;;;;;;;;;;;-140.72;100.00;52496.38;5085649;28;19916;-69
2023/07/27 06:43:37;;;;;;;;;;;;;;;-140.72;100.00;52547.09;5074382;28;19999;-70
2023/07/27 06:46:02;;;;;;;;;;;;;;;-140.72;100.00;52543.03;5089775;28;19951;-69
2023/07/27 06:48:27;;;;;;;;;;;;;;;-140.72;100.00;52555.22;5082749;28;19946;-68
2023/07/27 06:50:52;;;;;;;;;;;;;;;-140.72;100.00;52561.31;5080399;28;19924;-69
2023/07/27 06:53:18;;;;;;;;;;;;;;;-140.72;100.00;52563.34;5077124;28;19916;-69
2023/07/27 06:55:43;;;;;;;;;;;;;;;-140.72;100.00;52536.97;5089442;28;19963;-69
2023/07/27 06:58:08;;;;;;;;;;;;;;;-140.72;100.00;52569.44;5090986;28;19963;-69
2023/07/27 07:00:33;;;;;;;;;;;;;;;-140.72;100.00;52559.28;5086807;28;19916;-69
2023/07/27 07:02:59;;;;;;;;;;;;;;;-140.72;100.00;52512.59;5072430;28;19920;-69
2023/07/27 07:05:35;;;;;;;;;;;;;;;-140.72;100.00;52522.75;5099986;28;20169;-71
2023/07/27 07:08:00;;;;;;;;;;;;;;;-140.72;100.00;52488.25;5093009;28;20288;-72
2023/07/27 07:10:25;;;;;;;;;;;;;;;-140.72;100.00;52514.63;5093012;28;19917;-71
2023/07/27 07:13:12;;;;;;;;;;;;;;;-140.72;100.00;52500.44;5092712;28;20389;-71
2023/07/27 07:15:39;;;;;;;;;;;;;;;-140.72;100.00;52522.75;5091371;28;20355;-71
2023/07/27 07:18:10;;;;;;;;;;;;;;;-140.72;100.00;52536.97;5087346;28;19999;-71
2023/07/27 07:20:36;;;;;;;;;;;;;;;-140.72;100.00;52520.72;5095161;28;19924;-71
2023/07/27 07:23:01;;;;;;;;;;;;;;;-140.72;100.00;52508.56;5081534;28;19920;-70
2023/07/27 07:25:27;;;;;;;;;;;;;;;-140.72;100.00;52480.16;5091621;28;20006;-70
2023/07/27 07:27:52;;;;;;;;;;;;;;;-140.72;100.00;52526.81;5088469;28;19945;-70
2023/07/27 07:30:17;;;;;;;;;;;;;;;-140.72;100.00;52534.94;5086724;28;19924;-70
2023/07/27 07:32:42;;;;;;;;;;;;;;;-140.72;100.00;52506.53;5066292;28;19920;-70
2023/07/27 07:35:14;;;;;;;;;;;;;;;-140.72;100.00;52539.00;5084842;28;20491;-70
2023/07/27 07:37:47;;;;;;;;;;;;;;;-140.72;100.00;52549.13;5086086;28;19920;-70
2023/07/27 07:40:13;;;;;;;;;;;;;;;-140.72;100.00;52488.25;5095807;28;20282;-70
2023/07/27 07:42:38;;;;;;;;;;;;;;;-140.72;100.00;52494.34;5082925;28;19927;-70
2023/07/27 07:45:15;;;;;;;;;;;;;;;-140.72;100.00;52541.03;5090993;28;20366;-70
2023/07/27 07:47:40;;;;;;;;;;;;;;;-140.72;100.00;52520.72;5092360;28;19930;-70
2023/07/27 07:50:06;;;;;;;;;;;;;;;-140.72;100.00;52555.22;5093813;28;20351;-70
2023/07/27 07:52:31;;;;;;;;;;;;;;;-140.72;100.00;52543.03;5088832;28;19924;-70
2023/07/27 07:54:57;;;;;;;;;;;;;;;-140.72;100.00;52559.28;5093684;28;19916;-70
2023/07/27 07:57:22;;;;;;;;;;;;;;;-140.72;100.00;52504.50;5079837;28;19957;-70
2023/07/27 07:59:47;;;;;;;;;;;;;;;-140.72;100.00;52506.53;5092503;28;19946;-70
2023/07/27 08:02:16;;;;;;;;;;;;;;;-140.72;100.00;52526.81;5085532;28;19920;-70
2023/07/27 08:04:41;;;;;;;;;;;;;;;-140.72;100.00;52559.28;5090929;28;19924;-70
2023/07/27 08:07:06;;;;;;;;;;;;;;;-140.72;100.00;52539.00;5092948;28;19932;-69
2023/07/27 08:09:31;;;;;;;;;;;;;;;-140.72;100.00;52498.41;5091200;28;19920;-70
2023/07/27 08:11:58;;;;;;;;;;;;;;;-140.72;100.00;52547.09;5084568;28;20395;-70
2023/07/27 08:14:23;;;;;;;;;;;;;;;-140.72;100.00;52524.78;5091964;28;20007;-70
2023/07/27 08:16:48;;;;;;;;;;;;;;;-140.72;100.00;52500.44;5083075;28;19963;-70
2023/07/27 08:19:14;;;;;;;;;;;;;;;-140.72;100.00;52528.84;5087217;28;19927;-70
2023/07/27 08:21:39;;;;;;;;;;;;;;;-140.72;100.00;52532.91;5085405;28;19943;-70
2023/07/27 08:24:06;;;;;;;;;;;;;;;-140.72;100.00;52530.88;5088752;28;20278;-70
2023/07/27 08:26:31;;;;;;;;;;;;;;;-140.72;100.00;52526.81;5087919;28;19974;-70
2023/07/27 08:28:59;;;;;;;;;;;;;;;-140.72;100.00;52534.94;5086163;28;19916;-70
2023/07/27 08:31:24;;;;;;;;;;;;;;;-140.72;100.00;52524.78;5052930;28;20023;-70
2023/07/27 08:33:55;;;;;;;;;;;;;;;-140.72;100.00;52530.88;5068916;28;20425;-70
2023/07/27 08:36:20;;;;;;;;;;;;;;;-140.72;100.00;52498.41;5064950;28;19916;-70
2023/07/27 08:38:47;;;;;;;;;;;;;;;-140.72;100.00;52500.44;5068523;28;19921;-69
2023/07/27 08:41:12;;;;;;;;;;;;;;;-140.72;100.00;52500.44;5063075;28;20003;-69
2023/07/27 08:43:37;;;;;;;;;;;;;;;-140.72;100.00;52482.16;5065749;28;20392;-69
2023/07/27 08:46:09;;;;;;;;;;;;;;;-140.72;100.00;52476.09;5071542;28;19920;-69
2023/07/27 08:48:34;;;;;;;;;;;;;;;-140.72;100.00;52549.13;5074980;28;19917;-69
2023/07/27 08:51:00;;;;;;;;;;;;;;;-140.72;100.00;52496.38;5062775;28;19923;-69
2023/07/27 08:53:25;;;;;;;;;;;;;;;-140.72;100.00;52543.03;5088401;28;20267;-68
2023/07/27 08:55:51;;;;;;;;;;;;;;;-140.72;100.00;52536.97;5070992;28;20405;-69
2023/07/27 08:58:17;;;;;;;;;;;;;;;-140.72;100.00;52496.38;5067879;28;19997;-68
2023/07/27 09:00:42;;;;;;;;;;;;;;;-140.72;100.00;52510.59;5073069;28;19923;-68
2023/07/27 09:03:08;;;;;;;;;;;;;;;-140.72;100.00;52472.03;5062057;28;19917;-69
2023/07/27 09:05:38;;;;;;;;;;;;;;;-140.72;100.00;52502.47;5075797;28;19970;-69
2023/07/27 09:08:07;;;;;;;;;;;;;;;-140.72;100.00;52482.16;5075518;28;19916;-69
2023/07/27 09:10:33;;;;;;;;;;;;;;;-140.72;100.00;52498.41;5056326;28;20389;-69
2023/07/27 09:12:59;;;;;;;;;;;;;;;-140.72;100.00;52512.59;5070211;28;19917;-69
2023/07/27 09:15:26;;;;;;;;;;;;;;;-140.72;100.00;52528.84;5069230;28;20015;-68
2023/07/27 09:17:52;;;;;;;;;;;;;;;-140.72;100.00;52472.03;5070396;28;19920;-69
2023/07/27 09:20:17;;;;;;;;;;;;;;;-140.72;100.00;52510.59;5063938;28;19946;-69
2023/07/27 09:22:42;;;;;;;;;;;;;;;-140.72;100.00;52506.53;5060626;28;19916;-69
2023/07/27 09:25:08;;;;;;;;;;;;;;;-140.72;100.00;52488.25;5058174;28;19960;-69
2023/07/27 09:27:43;;;;;;;;;;;;;;;-140.72;100.00;52484.19;5075798;28;19982;-69
2023/07/27 09:30:08;;;;;;;;;;;;;;;-140.72;100.00;52480.16;5085484;28;20419;-69
2023/07/27 09:32:35;;;;;;;;;;;;;;;-140.72;100.00;52532.91;5081966;28;20024;-68
2023/07/27 09:35:00;;;;;;;;;;;;;;;-140.72;100.00;52500.44;5105449;28;20014;-68
2023/07/27 09:37:25;;;;;;;;;;;;;;;-140.72;100.00;52488.25;5100814;28;20027;-68
2023/07/27 09:40:04;;;;;;;;;;;;;;;-140.72;100.00;52543.03;5099118;28;19923;-69
2023/07/27 09:42:32;;;;;;;;;;;;;;;-140.72;100.00;52520.72;5083290;28;19961;-69
2023/07/27 09:44:58;;;;;;;;;;;;;;;-140.72;100.00;52512.59;5089178;28;19916;-69
2023/07/27 09:47:29;;;;;;;;;;;;;;;-140.72;100.00;52494.34;5089159;28;19951;-69
2023/07/27 09:49:57;;;;;;;;;;;;;;;-140.72;100.00;52518.69;5095366;28;19947;-69
2023/07/27 09:52:23;;;;;;;;;;;;;;;-140.72;100.00;52482.16;5082126;28;19926;-69
2023/07/27 09:54:49;;;;;;;;;;;;;;;-140.72;100.00;52516.66;5096160;28;19923;-68
2023/07/27 09:57:14;;;;;;;;;;;;;;;-140.72;100.00;52528.84;5105077;28;19917;-68
2023/07/27 09:59:41;;;;;;;;;;;;;;;-140.72;100.00;52547.09;5086445;28;19920;-70
2023/07/27 10:02:06;;;;;;;;;;;;;;;-140.72;100.00;52534.94;5091286;28;19975;-69
2023/07/27 10:04:32;;;;;;;;;;;;;;;-140.72;100.00;52536.97;5091909;28;19916;-69
2023/07/27 10:06:57;;;;;;;;;;;;;;;-140.72;100.00;52486.22;5084176;28;19954;-69
2023/07/27 10:09:22;;;;;;;;;;;;;;;-140.72;100.00;52457.81;5095664;28;20389;-70
2023/07/27 10:11:59;;;;;;;;;;;;;;;-140.72;100.00;52472.03;5094123;28;20362;-69
2023/07/27 10:14:28;;;;;;;;;;;;;;;-140.72;100.00;52488.25;5072555;28;19923;-70
2023/07/27 10:17:06;;;;;;;;;;;;;;;-140.72;100.00;52482.16;5088487;28;19916;-70
2023/07/27 10:19:50;;;;;;;;;;;;;;;-140.72;100.00;52488.25;5088563;28;19920;-69
2023/07/27 10:22:16;;;;;;;;;;;;;;;-140.72;100.00;52461.88;5095281;28;19916;-70
2023/07/27 10:24:50;;;;;;;;;;;;;;;-140.72;100.00;52459.84;5093191;28;19967;-70
2023/07/27 10:27:16;;;;;;;;;;;;;;;-140.72;100.00;52461.88;5093227;28;19951;-70
2023/07/27 10:29:45;;;;;;;;;;;;;;;-140.72;100.00;52455.78;5081335;28;19920;-69
2023/07/27 10:32:11;;;;;;;;;;;;;;;-140.72;100.00;52474.06;5076365;28;19920;-70
2023/07/27 10:34:37;;;;;;;;;;;;;;;-140.72;100.00;52465.94;5098411;28;19976;-71
2023/07/27 10:37:03;;;;;;;;;;;;;;;-140.72;100.00;52429.41;5101665;28;19916;-69
2023/07/27 10:39:30;;;;;;;;;;;;;;;-140.72;100.00;52484.19;5082607;28;20415;-69
2023/07/27 10:42:05;;;;;;;;;;;;;;;-140.72;100.00;52470.00;5084741;28;20003;-70
2023/07/27 10:44:47;;;;;;;;;;;;;;;-140.72;100.00;52502.47;5063176;28;19927;-69
2023/07/27 10:47:31;;;;;;;;;;;;;;;-140.72;100.00;52492.31;5080157;28;19923;-70
2023/07/27 10:49:58;;;;;;;;;;;;;;;-140.72;100.00;52524.78;5073998;28;20059;-69
2023/07/27 10:52:24;;;;;;;;;;;;;;;-140.72;100.00;52500.44;5076459;28;19916;-69
2023/07/27 10:54:50;;;;;;;;;;;;;;;-140.72;100.00;52512.59;5085197;28;19916;-69
2023/07/27 10:57:16;;;;;;;;;;;;;;;-140.72;100.00;52490.28;5100794;28;19917;-69
2023/07/27 10:59:43;;;;;;;;;;;;;;;-140.72;100.00;52522.75;5074171;28;19924;-69
2023/07/27 11:02:13;;;;;;;;;;;;;;;-140.72;100.00;52484.19;5086915;28;20308;-69
2023/07/27 11:04:39;;;;;;;;;;;;;;;-140.72;100.00;52482.16;5082075;28;19916;-69
2023/07/27 11:07:05;;;;;;;;;;;;;;;-140.72;100.00;52455.78;5086603;28;20388;-69
2023/07/27 11:09:30;;;;;;;;;;;;;;;-140.72;100.00;52512.59;5067637;28;19920;-69
2023/07/27 11:11:59;;;;;;;;;;;;;;;-140.72;100.00;52496.38;5093360;28;19964;-69
2023/07/27 11:14:24;;;;;;;;;;;;;;;-140.72;100.00;52476.09;5093775;28;19920;-69
2023/07/27 11:16:51;;;;;;;;;;;;;;;-140.72;100.00;52407.09;5090032;28;20435;-70
2023/07/27 11:19:16;;;;;;;;;;;;;;;-140.72;100.00;52461.88;5089479;28;19963;-69
2023/07/27 11:21:42;;;;;;;;;;;;;;;-140.72;100.00;52480.16;5088709;28;20345;-70
2023/07/27 11:24:08;;;;;;;;;;;;;;;-140.72;100.00;52488.25;5082423;28;19916;-70
2023/07/27 11:26:34;;;;;;;;;;;;;;;-140.72;100.00;52478.13;5070811;28;19924;-69
2023/07/27 11:29:00;;;;;;;;;;;;;;;-140.72;100.00;52500.44;5096044;28;20492;-69
2023/07/27 11:31:25;;;;;;;;;;;;;;;-140.72;100.00;52467.97;5091897;28;20048;-69
2023/07/27 11:33:55;;;;;;;;;;;;;;;-140.72;100.00;52490.28;5073120;28;20007;-69
2023/07/27 11:36:20;;;;;;;;;;;;;;;-140.72;100.00;52488.25;5089310;28;19920;-70
2023/07/27 11:38:46;;;;;;;;;;;;;;;-140.72;100.00;52437.53;5086168;28;19924;-70
2023/07/27 11:41:11;;;;;;;;;;;;;;;-140.72;100.00;52463.91;5081954;28;19923;-70
2023/07/27 11:43:37;;;;;;;;;;;;;;;-140.72;100.00;52463.91;5082353;28;20328;-70
2023/07/27 11:46:02;;;;;;;;;;;;;;;-140.72;100.00;52437.53;5093591;28;19993;-70
2023/07/27 11:48:28;;;;;;;;;;;;;;;-140.72;100.00;52447.69;5094326;28;19923;-70
2023/07/27 11:50:57;;;;;;;;;;;;;;;-140.72;100.00;52488.25;5083591;28;19920;-70
2023/07/27 11:53:26;;;;;;;;;;;;;;;-140.72;100.00;52461.88;5093772;28;19923;-70
2023/07/27 11:55:52;;;;;;;;;;;;;;;-140.72;100.00;52459.84;5089006;28;20290;-69
2023/07/27 11:58:17;;;;;;;;;;;;;;;-140.72;100.00;52494.34;5089243;28;19920;-70
2023/07/27 12:00:47;;;;;;;;;;;;;;;-140.72;100.00;52500.44;5088237;28;19924;-70
2023/07/27 12:03:12;;;;;;;;;;;;;;;-140.72;100.00;52504.50;5074317;28;20003;-70
2023/07/27 12:05:38;;;;;;;;;;;;;;;-140.72;100.00;52496.38;5093203;28;19970;-70
2023/07/27 12:08:03;;;;;;;;;;;;;;;-140.72;100.00;52496.38;5093307;28;19923;-69
2023/07/27 12:10:29;;;;;;;;;;;;;;;-140.72;100.00;52492.31;5080578;28;19916;-70
2023/07/27 12:12:58;;;;;;;;;;;;;;;-140.72;100.00;52467.97;5087373;28;19924;-68
2023/07/27 12:15:24;;;;;;;;;;;;;;;-140.72;100.00;52480.16;5092793;28;19923;-69